sensor_id;sensor_type;location;lat;lon;timestamp;P1;durP1;ratioP1;P2;durP2;ratioP2
73397;SDS011;63606;52.328;20.964;2022-10-31T00:00:29;39.13;;;22.52;;
73397;SDS011;63606;52.328;20.964;2022-10-31T00:02:55;40.92;;;23.10;;
73397;SDS011;63606;52.328;20.964;2022-10-31T00:05:21;40.50;;;22.50;;
73397;SDS011;63606;52.328;20.964;2022-10-31T00:07:46;42.15;;;23.13;;
73397;SDS011;63606;52.328;20.964;2022-10-31T00:10:12;46.13;;;21.13;;
73397;SDS011;63606;52.328;20.964;2022-10-31T00:12:37;38.58;;;21.50;;
73397;SDS011;63606;52.328;20.964;2022-10-31T00:15:03;38.90;;;20.30;;
73397;SDS011;63606;52.328;20.964;2022-10-31T00:17:28;38.17;;;19.67;;
73397;SDS011;63606;52.328;20.964;2022-10-31T00:19:54;45.67;;;20.98;;
73397;SDS011;63606;52.328;20.964;2022-10-31T00:22:19;37.78;;;20.50;;
73397;SDS011;63606;52.328;20.964;2022-10-31T00:24:45;40.28;;;20.17;;
73397;SDS011;63606;52.328;20.964;2022-10-31T00:27:10;39.53;;;22.45;;
73397;SDS011;63606;52.328;20.964;2022-10-31T00:29:36;37.97;;;21.50;;
73397;SDS011;63606;52.328;20.964;2022-10-31T00:32:01;38.83;;;21.30;;
73397;SDS011;63606;52.328;20.964;2022-10-31T00:34:27;41.63;;;20.92;;
73397;SDS011;63606;52.328;20.964;2022-10-31T00:36:52;37.95;;;20.08;;
73397;SDS011;63606;52.328;20.964;2022-10-31T00:39:18;39.90;;;20.40;;
73397;SDS011;63606;52.328;20.964;2022-10-31T00:41:43;36.88;;;20.60;;
73397;SDS011;63606;52.328;20.964;2022-10-31T00:44:09;38.72;;;18.45;;
73397;SDS011;63606;52.328;20.964;2022-10-31T00:46:34;36.60;;;19.77;;
73397;SDS011;63606;52.328;20.964;2022-10-31T00:49:00;38.30;;;20.20;;
73397;SDS011;63606;52.328;20.964;2022-10-31T00:51:25;37.15;;;19.85;;
73397;SDS011;63606;52.328;20.964;2022-10-31T00:53:51;37.67;;;19.75;;
73397;SDS011;63606;52.328;20.964;2022-10-31T00:56:16;34.60;;;19.38;;
73397;SDS011;63606;52.328;20.964;2022-10-31T00:58:42;39.17;;;20.90;;
73397;SDS011;63606;52.328;20.964;2022-10-31T01:01:07;37.40;;;19.95;;
73397;SDS011;63606;52.328;20.964;2022-10-31T01:03:33;37.20;;;18.85;;
73397;SDS011;63606;52.328;20.964;2022-10-31T01:05:59;38.72;;;19.50;;
73397;SDS011;63606;52.328;20.964;2022-10-31T01:08:35;35.47;;;20.13;;
73397;SDS011;63606;52.328;20.964;2022-10-31T01:11:12;36.40;;;20.98;;
73397;SDS011;63606;52.328;20.964;2022-10-31T01:13:40;35.72;;;19.83;;
73397;SDS011;63606;52.328;20.964;2022-10-31T01:16:06;37.08;;;20.40;;
73397;SDS011;63606;52.328;20.964;2022-10-31T01:18:34;37.25;;;20.65;;
73397;SDS011;63606;52.328;20.964;2022-10-31T01:21:02;35.13;;;19.98;;
73397;SDS011;63606;52.328;20.964;2022-10-31T01:25:59;34.75;;;17.70;;
73397;SDS011;63606;52.328;20.964;2022-10-31T01:28:40;35.35;;;19.85;;
73397;SDS011;63606;52.328;20.964;2022-10-31T01:31:18;36.33;;;20.50;;
73397;SDS011;63606;52.328;20.964;2022-10-31T01:33:45;39.55;;;20.65;;
73397;SDS011;63606;52.328;20.964;2022-10-31T01:36:19;38.15;;;21.10;;
73397;SDS011;63606;52.328;20.964;2022-10-31T01:38:55;38.08;;;20.10;;
73397;SDS011;63606;52.328;20.964;2022-10-31T01:41:24;39.30;;;20.50;;
73397;SDS011;63606;52.328;20.964;2022-10-31T01:43:52;38.95;;;20.30;;
73397;SDS011;63606;52.328;20.964;2022-10-31T01:46:21;44.20;;;22.58;;
73397;SDS011;63606;52.328;20.964;2022-10-31T01:48:51;40.60;;;21.75;;
73397;SDS011;63606;52.328;20.964;2022-10-31T01:51:20;43.17;;;22.15;;
73397;SDS011;63606;52.328;20.964;2022-10-31T01:53:51;42.20;;;21.63;;
73397;SDS011;63606;52.328;20.964;2022-10-31T01:56:20;40.83;;;21.48;;
73397;SDS011;63606;52.328;20.964;2022-10-31T01:58:46;45.55;;;22.70;;
73397;SDS011;63606;52.328;20.964;2022-10-31T02:01:12;42.47;;;22.88;;
73397;SDS011;63606;52.328;20.964;2022-10-31T02:03:41;46.20;;;23.92;;
73397;SDS011;63606;52.328;20.964;2022-10-31T02:06:08;42.92;;;22.55;;
73397;SDS011;63606;52.328;20.964;2022-10-31T02:08:41;45.05;;;24.40;;
73397;SDS011;63606;52.328;20.964;2022-10-31T02:11:08;47.22;;;23.70;;
73397;SDS011;63606;52.328;20.964;2022-10-31T02:13:34;45.78;;;24.13;;
73397;SDS011;63606;52.328;20.964;2022-10-31T02:16:00;49.05;;;23.90;;
73397;SDS011;63606;52.328;20.964;2022-10-31T02:18:26;43.75;;;23.90;;
73397;SDS011;63606;52.328;20.964;2022-10-31T02:20:58;49.42;;;25.02;;
73397;SDS011;63606;52.328;20.964;2022-10-31T02:29:05;43.40;;;23.35;;
73397;SDS011;63606;52.328;20.964;2022-10-31T02:32:03;48.17;;;24.95;;
73397;SDS011;63606;52.328;20.964;2022-10-31T02:40:38;52.03;;;26.30;;
73397;SDS011;63606;52.328;20.964;2022-10-31T02:43:26;49.00;;;25.10;;
73397;SDS011;63606;52.328;20.964;2022-10-31T02:48:37;53.50;;;26.55;;
73397;SDS011;63606;52.328;20.964;2022-10-31T02:51:06;53.85;;;25.75;;
73397;SDS011;63606;52.328;20.964;2022-10-31T02:53:33;51.63;;;26.40;;
73397;SDS011;63606;52.328;20.964;2022-10-31T02:58:45;49.33;;;25.98;;
73397;SDS011;63606;52.328;20.964;2022-10-31T03:01:33;56.35;;;27.77;;
73397;SDS011;63606;52.328;20.964;2022-10-31T03:06:53;54.55;;;28.90;;
73397;SDS011;63606;52.328;20.964;2022-10-31T03:12:39;48.28;;;25.38;;
73397;SDS011;63606;52.328;20.964;2022-10-31T03:15:30;58.28;;;28.20;;
73397;SDS011;63606;52.328;20.964;2022-10-31T03:20:48;52.78;;;26.67;;
73397;SDS011;63606;52.328;20.964;2022-10-31T03:23:19;54.05;;;26.85;;
73397;SDS011;63606;52.328;20.964;2022-10-31T03:25:48;52.90;;;26.88;;
73397;SDS011;63606;52.328;20.964;2022-10-31T03:28:16;53.45;;;26.50;;
73397;SDS011;63606;52.328;20.964;2022-10-31T03:30:47;51.55;;;25.55;;
73397;SDS011;63606;52.328;20.964;2022-10-31T03:33:18;53.00;;;25.92;;
73397;SDS011;63606;52.328;20.964;2022-10-31T03:35:51;52.15;;;26.40;;
73397;SDS011;63606;52.328;20.964;2022-10-31T03:38:20;53.30;;;27.58;;
73397;SDS011;63606;52.328;20.964;2022-10-31T03:40:47;57.55;;;27.10;;
73397;SDS011;63606;52.328;20.964;2022-10-31T03:43:19;51.50;;;27.35;;
73397;SDS011;63606;52.328;20.964;2022-10-31T03:45:49;53.25;;;26.83;;
73397;SDS011;63606;52.328;20.964;2022-10-31T03:48:16;51.15;;;27.95;;
73397;SDS011;63606;52.328;20.964;2022-10-31T03:50:58;51.83;;;26.52;;
73397;SDS011;63606;52.328;20.964;2022-10-31T03:53:56;53.97;;;26.58;;
73397;SDS011;63606;52.328;20.964;2022-10-31T03:56:37;51.75;;;26.38;;
73397;SDS011;63606;52.328;20.964;2022-10-31T04:02:06;50.40;;;25.88;;
73397;SDS011;63606;52.328;20.964;2022-10-31T04:04:36;54.42;;;27.83;;
73397;SDS011;63606;52.328;20.964;2022-10-31T04:07:03;50.95;;;27.58;;
73397;SDS011;63606;52.328;20.964;2022-10-31T04:09:32;54.05;;;27.27;;
73397;SDS011;63606;52.328;20.964;2022-10-31T04:12:01;60.22;;;28.63;;
73397;SDS011;63606;52.328;20.964;2022-10-31T04:14:31;50.20;;;26.10;;
73397;SDS011;63606;52.328;20.964;2022-10-31T04:16:59;52.70;;;27.02;;
73397;SDS011;63606;52.328;20.964;2022-10-31T04:19:28;57.35;;;27.50;;
73397;SDS011;63606;52.328;20.964;2022-10-31T04:21:54;51.88;;;26.90;;
73397;SDS011;63606;52.328;20.964;2022-10-31T04:24:19;57.88;;;28.23;;
73397;SDS011;63606;52.328;20.964;2022-10-31T04:26:45;55.50;;;28.45;;
73397;SDS011;63606;52.328;20.964;2022-10-31T04:29:10;50.80;;;27.23;;
73397;SDS011;63606;52.328;20.964;2022-10-31T04:31:36;56.05;;;27.92;;
73397;SDS011;63606;52.328;20.964;2022-10-31T04:34:01;54.88;;;27.15;;
73397;SDS011;63606;52.328;20.964;2022-10-31T04:36:27;51.67;;;26.48;;
73397;SDS011;63606;52.328;20.964;2022-10-31T04:38:52;55.38;;;27.55;;
73397;SDS011;63606;52.328;20.964;2022-10-31T04:41:18;56.60;;;27.58;;
73397;SDS011;63606;52.328;20.964;2022-10-31T04:43:43;50.55;;;25.92;;
73397;SDS011;63606;52.328;20.964;2022-10-31T04:46:09;50.63;;;26.48;;
73397;SDS011;63606;52.328;20.964;2022-10-31T04:48:34;48.85;;;26.38;;
73397;SDS011;63606;52.328;20.964;2022-10-31T04:51:00;52.45;;;26.20;;
73397;SDS011;63606;52.328;20.964;2022-10-31T04:53:27;49.90;;;25.90;;
73397;SDS011;63606;52.328;20.964;2022-10-31T04:55:53;50.53;;;25.65;;
73397;SDS011;63606;52.328;20.964;2022-10-31T04:58:19;53.85;;;28.38;;
73397;SDS011;63606;52.328;20.964;2022-10-31T05:00:45;52.63;;;24.80;;
73397;SDS011;63606;52.328;20.964;2022-10-31T05:03:10;55.35;;;26.25;;
73397;SDS011;63606;52.328;20.964;2022-10-31T05:05:36;51.47;;;25.95;;
73397;SDS011;63606;52.328;20.964;2022-10-31T05:08:01;52.28;;;26.77;;
73397;SDS011;63606;52.328;20.964;2022-10-31T05:10:28;52.28;;;27.38;;
73397;SDS011;63606;52.328;20.964;2022-10-31T05:12:59;49.17;;;26.30;;
73397;SDS011;63606;52.328;20.964;2022-10-31T05:15:26;53.58;;;25.83;;
73397;SDS011;63606;52.328;20.964;2022-10-31T05:17:52;52.10;;;27.38;;
73397;SDS011;63606;52.328;20.964;2022-10-31T05:20:19;53.75;;;25.73;;
73397;SDS011;63606;52.328;20.964;2022-10-31T05:22:47;50.22;;;26.35;;
73397;SDS011;63606;52.328;20.964;2022-10-31T05:25:14;49.72;;;25.73;;
73397;SDS011;63606;52.328;20.964;2022-10-31T05:27:44;55.90;;;27.08;;
73397;SDS011;63606;52.328;20.964;2022-10-31T05:30:11;55.17;;;26.98;;
73397;SDS011;63606;52.328;20.964;2022-10-31T05:35:10;55.40;;;28.00;;
73397;SDS011;63606;52.328;20.964;2022-10-31T05:37:37;56.20;;;27.05;;
73397;SDS011;63606;52.328;20.964;2022-10-31T05:40:04;54.83;;;28.15;;
73397;SDS011;63606;52.328;20.964;2022-10-31T05:42:31;56.75;;;26.50;;
73397;SDS011;63606;52.328;20.964;2022-10-31T05:44:57;60.00;;;27.08;;
73397;SDS011;63606;52.328;20.964;2022-10-31T05:47:22;57.55;;;27.65;;
73397;SDS011;63606;52.328;20.964;2022-10-31T05:49:48;52.10;;;26.63;;
73397;SDS011;63606;52.328;20.964;2022-10-31T05:52:14;52.45;;;27.15;;
73397;SDS011;63606;52.328;20.964;2022-10-31T05:54:40;48.47;;;25.52;;
73397;SDS011;63606;52.328;20.964;2022-10-31T05:57:05;58.17;;;27.27;;
73397;SDS011;63606;52.328;20.964;2022-10-31T05:59:31;60.08;;;26.88;;
73397;SDS011;63606;52.328;20.964;2022-10-31T06:01:56;68.07;;;27.88;;
73397;SDS011;63606;52.328;20.964;2022-10-31T06:04:22;71.47;;;28.80;;
73397;SDS011;63606;52.328;20.964;2022-10-31T06:06:48;65.50;;;26.98;;
73397;SDS011;63606;52.328;20.964;2022-10-31T06:09:13;60.70;;;26.15;;
73397;SDS011;63606;52.328;20.964;2022-10-31T06:11:39;59.28;;;26.73;;
73397;SDS011;63606;52.328;20.964;2022-10-31T06:14:04;56.75;;;26.15;;
73397;SDS011;63606;52.328;20.964;2022-10-31T06:16:30;54.58;;;27.17;;
73397;SDS011;63606;52.328;20.964;2022-10-31T06:18:56;55.70;;;26.48;;
73397;SDS011;63606;52.328;20.964;2022-10-31T06:21:22;56.05;;;25.08;;
73397;SDS011;63606;52.328;20.964;2022-10-31T06:23:47;59.80;;;25.90;;
73397;SDS011;63606;52.328;20.964;2022-10-31T06:26:13;51.78;;;24.85;;
73397;SDS011;63606;52.328;20.964;2022-10-31T06:28:38;51.20;;;25.45;;
73397;SDS011;63606;52.328;20.964;2022-10-31T06:31:04;53.17;;;25.63;;
73397;SDS011;63606;52.328;20.964;2022-10-31T06:33:30;52.80;;;24.55;;
73397;SDS011;63606;52.328;20.964;2022-10-31T06:35:55;50.85;;;25.08;;
73397;SDS011;63606;52.328;20.964;2022-10-31T06:38:21;55.17;;;25.73;;
73397;SDS011;63606;52.328;20.964;2022-10-31T06:40:46;58.72;;;27.13;;
73397;SDS011;63606;52.328;20.964;2022-10-31T06:43:12;49.47;;;25.23;;
73397;SDS011;63606;52.328;20.964;2022-10-31T06:45:39;62.35;;;29.38;;
73397;SDS011;63606;52.328;20.964;2022-10-31T06:48:04;63.38;;;28.75;;
73397;SDS011;63606;52.328;20.964;2022-10-31T06:50:30;63.22;;;28.67;;
73397;SDS011;63606;52.328;20.964;2022-10-31T06:52:56;62.40;;;29.00;;
73397;SDS011;63606;52.328;20.964;2022-10-31T06:55:24;62.20;;;28.25;;
73397;SDS011;63606;52.328;20.964;2022-10-31T06:57:58;65.72;;;28.15;;
73397;SDS011;63606;52.328;20.964;2022-10-31T07:00:25;67.03;;;29.00;;
73397;SDS011;63606;52.328;20.964;2022-10-31T07:02:53;63.00;;;26.45;;
73397;SDS011;63606;52.328;20.964;2022-10-31T07:05:25;57.53;;;26.42;;
73397;SDS011;63606;52.328;20.964;2022-10-31T07:07:56;71.05;;;31.75;;
73397;SDS011;63606;52.328;20.964;2022-10-31T07:10:23;69.28;;;30.15;;
73397;SDS011;63606;52.328;20.964;2022-10-31T07:12:54;56.33;;;25.25;;
73397;SDS011;63606;52.328;20.964;2022-10-31T07:15:21;51.92;;;24.08;;
73397;SDS011;63606;52.328;20.964;2022-10-31T07:17:48;57.97;;;24.77;;
73397;SDS011;63606;52.328;20.964;2022-10-31T07:20:14;56.90;;;24.90;;
73397;SDS011;63606;52.328;20.964;2022-10-31T07:22:40;59.53;;;26.50;;
73397;SDS011;63606;52.328;20.964;2022-10-31T07:25:05;56.70;;;24.70;;
73397;SDS011;63606;52.328;20.964;2022-10-31T07:27:37;56.83;;;25.88;;
73397;SDS011;63606;52.328;20.964;2022-10-31T07:30:08;51.55;;;24.42;;
73397;SDS011;63606;52.328;20.964;2022-10-31T07:32:41;57.90;;;26.48;;
73397;SDS011;63606;52.328;20.964;2022-10-31T07:35:08;53.97;;;23.83;;
73397;SDS011;63606;52.328;20.964;2022-10-31T07:37:35;52.10;;;23.58;;
73397;SDS011;63606;52.328;20.964;2022-10-31T07:40:01;54.38;;;23.88;;
73397;SDS011;63606;52.328;20.964;2022-10-31T07:42:37;54.05;;;23.98;;
73397;SDS011;63606;52.328;20.964;2022-10-31T07:45:04;50.25;;;22.05;;
73397;SDS011;63606;52.328;20.964;2022-10-31T07:48:04;57.42;;;22.77;;
73397;SDS011;63606;52.328;20.964;2022-10-31T07:50:30;50.47;;;21.73;;
73397;SDS011;63606;52.328;20.964;2022-10-31T07:53:07;56.40;;;21.38;;
73397;SDS011;63606;52.328;20.964;2022-10-31T07:55:34;53.05;;;22.20;;
73397;SDS011;63606;52.328;20.964;2022-10-31T07:58:01;51.58;;;21.40;;
73397;SDS011;63606;52.328;20.964;2022-10-31T08:00:34;48.65;;;18.83;;
73397;SDS011;63606;52.328;20.964;2022-10-31T08:03:02;55.42;;;21.80;;
73397;SDS011;63606;52.328;20.964;2022-10-31T08:05:30;56.15;;;22.33;;
73397;SDS011;63606;52.328;20.964;2022-10-31T08:07:57;56.47;;;21.92;;
73397;SDS011;63606;52.328;20.964;2022-10-31T08:10:23;62.28;;;22.40;;
73397;SDS011;63606;52.328;20.964;2022-10-31T08:12:56;47.22;;;21.05;;
73397;SDS011;63606;52.328;20.964;2022-10-31T08:15:26;47.20;;;20.15;;
73397;SDS011;63606;52.328;20.964;2022-10-31T08:17:52;56.60;;;20.13;;
73397;SDS011;63606;52.328;20.964;2022-10-31T08:20:18;57.00;;;21.80;;
73397;SDS011;63606;52.328;20.964;2022-10-31T08:25:23;51.00;;;21.50;;
73397;SDS011;63606;52.328;20.964;2022-10-31T08:27:50;53.30;;;19.10;;
73397;SDS011;63606;52.328;20.964;2022-10-31T08:30:17;52.50;;;19.70;;
73397;SDS011;63606;52.328;20.964;2022-10-31T08:32:44;55.42;;;20.38;;
73397;SDS011;63606;52.328;20.964;2022-10-31T08:35:09;51.55;;;20.15;;
73397;SDS011;63606;52.328;20.964;2022-10-31T08:37:35;52.00;;;19.73;;
73397;SDS011;63606;52.328;20.964;2022-10-31T08:40:00;47.45;;;18.88;;
73397;SDS011;63606;52.328;20.964;2022-10-31T08:42:26;42.22;;;18.52;;
73397;SDS011;63606;52.328;20.964;2022-10-31T08:44:51;47.67;;;18.55;;
73397;SDS011;63606;52.328;20.964;2022-10-31T08:47:17;47.97;;;19.52;;
73397;SDS011;63606;52.328;20.964;2022-10-31T08:49:42;43.70;;;17.27;;
73397;SDS011;63606;52.328;20.964;2022-10-31T08:52:08;38.83;;;17.25;;
73397;SDS011;63606;52.328;20.964;2022-10-31T08:54:34;45.15;;;18.23;;
73397;SDS011;63606;52.328;20.964;2022-10-31T08:56:59;39.83;;;17.05;;
73397;SDS011;63606;52.328;20.964;2022-10-31T08:59:25;46.40;;;17.70;;
73397;SDS011;63606;52.328;20.964;2022-10-31T09:01:50;42.97;;;18.13;;
73397;SDS011;63606;52.328;20.964;2022-10-31T09:04:16;37.38;;;17.67;;
73397;SDS011;63606;52.328;20.964;2022-10-31T09:06:41;42.25;;;18.00;;
73397;SDS011;63606;52.328;20.964;2022-10-31T09:09:07;35.08;;;17.42;;
73397;SDS011;63606;52.328;20.964;2022-10-31T09:11:32;31.50;;;15.52;;
73397;SDS011;63606;52.328;20.964;2022-10-31T09:13:58;31.52;;;15.35;;
73397;SDS011;63606;52.328;20.964;2022-10-31T09:16:23;32.60;;;15.77;;
73397;SDS011;63606;52.328;20.964;2022-10-31T09:18:49;35.50;;;16.42;;
73397;SDS011;63606;52.328;20.964;2022-10-31T09:21:14;31.23;;;15.05;;
73397;SDS011;63606;52.328;20.964;2022-10-31T09:23:40;33.00;;;14.32;;
73397;SDS011;63606;52.328;20.964;2022-10-31T09:26:05;28.83;;;12.73;;
73397;SDS011;63606;52.328;20.964;2022-10-31T09:28:31;31.75;;;14.32;;
73397;SDS011;63606;52.328;20.964;2022-10-31T09:30:57;28.95;;;14.52;;
73397;SDS011;63606;52.328;20.964;2022-10-31T09:33:23;29.50;;;14.70;;
73397;SDS011;63606;52.328;20.964;2022-10-31T09:35:48;24.05;;;12.73;;
73397;SDS011;63606;52.328;20.964;2022-10-31T09:38:15;30.75;;;12.35;;
73397;SDS011;63606;52.328;20.964;2022-10-31T09:46:22;27.40;;;12.88;;
73397;SDS011;63606;52.328;20.964;2022-10-31T09:51:55;25.50;;;13.15;;
73397;SDS011;63606;52.328;20.964;2022-10-31T09:56:58;27.80;;;13.38;;
73397;SDS011;63606;52.328;20.964;2022-10-31T09:59:33;31.80;;;15.00;;
73397;SDS011;63606;52.328;20.964;2022-10-31T10:02:02;25.13;;;12.75;;
73397;SDS011;63606;52.328;20.964;2022-10-31T10:07:17;33.80;;;14.95;;
73397;SDS011;63606;52.328;20.964;2022-10-31T10:09:44;31.08;;;15.30;;
73397;SDS011;63606;52.328;20.964;2022-10-31T10:18:37;34.95;;;14.60;;
73397;SDS011;63606;52.328;20.964;2022-10-31T10:33:32;35.78;;;16.13;;
73397;SDS011;63606;52.328;20.964;2022-10-31T10:36:23;32.03;;;14.73;;
73397;SDS011;63606;52.328;20.964;2022-10-31T10:38:55;33.97;;;16.20;;
73397;SDS011;63606;52.328;20.964;2022-10-31T10:41:26;33.50;;;15.98;;
73397;SDS011;63606;52.328;20.964;2022-10-31T10:43:57;35.50;;;16.88;;
73397;SDS011;63606;52.328;20.964;2022-10-31T10:46:28;31.45;;;16.02;;
73397;SDS011;63606;52.328;20.964;2022-10-31T10:49:40;31.90;;;15.85;;
73397;SDS011;63606;52.328;20.964;2022-10-31T10:55:09;31.30;;;16.88;;
73397;SDS011;63606;52.328;20.964;2022-10-31T11:02:50;34.20;;;17.73;;
73397;SDS011;63606;52.328;20.964;2022-10-31T11:05:24;38.17;;;19.77;;
73397;SDS011;63606;52.328;20.964;2022-10-31T11:07:55;37.63;;;18.85;;
73397;SDS011;63606;52.328;20.964;2022-10-31T11:10:21;33.35;;;18.38;;
73397;SDS011;63606;52.328;20.964;2022-10-31T11:13:03;32.67;;;16.95;;
73397;SDS011;63606;52.328;20.964;2022-10-31T11:15:48;34.50;;;17.38;;
73397;SDS011;63606;52.328;20.964;2022-10-31T11:18:21;33.08;;;15.80;;
73397;SDS011;63606;52.328;20.964;2022-10-31T11:20:50;31.45;;;15.57;;
73397;SDS011;63606;52.328;20.964;2022-10-31T11:23:18;32.20;;;15.43;;
73397;SDS011;63606;52.328;20.964;2022-10-31T11:25:56;27.70;;;14.95;;
73397;SDS011;63606;52.328;20.964;2022-10-31T11:28:23;27.48;;;14.73;;
73397;SDS011;63606;52.328;20.964;2022-10-31T11:30:51;25.55;;;13.45;;
73397;SDS011;63606;52.328;20.964;2022-10-31T11:35:56;22.13;;;12.00;;
73397;SDS011;63606;52.328;20.964;2022-10-31T11:38:23;28.48;;;13.57;;
73397;SDS011;63606;52.328;20.964;2022-10-31T11:40:58;26.27;;;13.18;;
73397;SDS011;63606;52.328;20.964;2022-10-31T11:43:29;31.20;;;14.90;;
73397;SDS011;63606;52.328;20.964;2022-10-31T11:45:55;27.33;;;13.02;;
73397;SDS011;63606;52.328;20.964;2022-10-31T11:48:22;29.08;;;14.02;;
73397;SDS011;63606;52.328;20.964;2022-10-31T11:50:51;29.15;;;13.63;;
73397;SDS011;63606;52.328;20.964;2022-10-31T11:53:27;24.70;;;12.90;;
73397;SDS011;63606;52.328;20.964;2022-10-31T11:56:06;25.88;;;13.95;;
73397;SDS011;63606;52.328;20.964;2022-10-31T11:58:38;26.95;;;14.50;;
73397;SDS011;63606;52.328;20.964;2022-10-31T12:01:04;27.02;;;14.00;;
73397;SDS011;63606;52.328;20.964;2022-10-31T12:03:47;25.63;;;13.20;;
73397;SDS011;63606;52.328;20.964;2022-10-31T12:08:55;30.42;;;13.93;;
73397;SDS011;63606;52.328;20.964;2022-10-31T12:11:32;31.88;;;14.32;;
73397;SDS011;63606;52.328;20.964;2022-10-31T12:19:20;29.58;;;13.70;;
73397;SDS011;63606;52.328;20.964;2022-10-31T12:34:47;27.55;;;14.52;;
73397;SDS011;63606;52.328;20.964;2022-10-31T12:37:40;29.55;;;13.63;;
73397;SDS011;63606;52.328;20.964;2022-10-31T12:40:30;26.83;;;13.70;;
73397;SDS011;63606;52.328;20.964;2022-10-31T12:44:21;28.55;;;14.18;;
73397;SDS011;63606;52.328;20.964;2022-10-31T12:52:06;25.35;;;12.48;;
73397;SDS011;63606;52.328;20.964;2022-10-31T12:54:44;24.77;;;13.68;;
73397;SDS011;63606;52.328;20.964;2022-10-31T12:57:31;29.60;;;12.60;;
73397;SDS011;63606;52.328;20.964;2022-10-31T13:00:07;25.25;;;13.63;;
73397;SDS011;63606;52.328;20.964;2022-10-31T13:08:11;22.60;;;12.80;;
73397;SDS011;63606;52.328;20.964;2022-10-31T13:10:42;27.17;;;12.88;;
73397;SDS011;63606;52.328;20.964;2022-10-31T13:13:13;24.98;;;12.48;;
73397;SDS011;63606;52.328;20.964;2022-10-31T13:16:17;24.00;;;11.90;;
73397;SDS011;63606;52.328;20.964;2022-10-31T13:18:51;26.30;;;12.45;;
73397;SDS011;63606;52.328;20.964;2022-10-31T13:21:23;27.13;;;11.90;;
73397;SDS011;63606;52.328;20.964;2022-10-31T13:23:52;23.52;;;12.20;;
73397;SDS011;63606;52.328;20.964;2022-10-31T13:26:33;26.38;;;12.25;;
73397;SDS011;63606;52.328;20.964;2022-10-31T13:29:06;24.48;;;12.38;;
73397;SDS011;63606;52.328;20.964;2022-10-31T13:31:53;22.40;;;11.90;;
73397;SDS011;63606;52.328;20.964;2022-10-31T13:37:01;25.02;;;13.38;;
73397;SDS011;63606;52.328;20.964;2022-10-31T13:42:37;26.90;;;12.43;;
73397;SDS011;63606;52.328;20.964;2022-10-31T13:45:16;25.08;;;12.10;;
73397;SDS011;63606;52.328;20.964;2022-10-31T13:50:39;29.33;;;14.23;;
73397;SDS011;63606;52.328;20.964;2022-10-31T13:55:44;29.58;;;13.93;;
73397;SDS011;63606;52.328;20.964;2022-10-31T14:03:35;25.70;;;12.88;;
73397;SDS011;63606;52.328;20.964;2022-10-31T14:06:03;25.60;;;13.60;;
73397;SDS011;63606;52.328;20.964;2022-10-31T14:08:32;31.15;;;14.85;;
73397;SDS011;63606;52.328;20.964;2022-10-31T14:11:00;27.75;;;13.70;;
73397;SDS011;63606;52.328;20.964;2022-10-31T14:13:29;28.05;;;14.32;;
73397;SDS011;63606;52.328;20.964;2022-10-31T14:16:00;33.88;;;18.85;;
73397;SDS011;63606;52.328;20.964;2022-10-31T14:18:37;32.33;;;14.77;;
73397;SDS011;63606;52.328;20.964;2022-10-31T14:23:48;37.03;;;17.23;;
73397;SDS011;63606;52.328;20.964;2022-10-31T14:26:30;29.80;;;14.75;;
73397;SDS011;63606;52.328;20.964;2022-10-31T14:28:59;27.70;;;14.43;;
73397;SDS011;63606;52.328;20.964;2022-10-31T14:53:08;38.67;;;18.70;;
73397;SDS011;63606;52.328;20.964;2022-10-31T14:55:57;35.85;;;17.20;;
73397;SDS011;63606;52.328;20.964;2022-10-31T14:58:35;36.10;;;18.05;;
73397;SDS011;63606;52.328;20.964;2022-10-31T15:01:15;39.40;;;18.83;;
73397;SDS011;63606;52.328;20.964;2022-10-31T15:06:49;40.42;;;17.15;;
73397;SDS011;63606;52.328;20.964;2022-10-31T15:09:23;35.83;;;17.83;;
73397;SDS011;63606;52.328;20.964;2022-10-31T15:11:55;46.17;;;20.23;;
73397;SDS011;63606;52.328;20.964;2022-10-31T15:14:30;40.42;;;19.60;;
73397;SDS011;63606;52.328;20.964;2022-10-31T15:16:56;38.92;;;18.92;;
73397;SDS011;63606;52.328;20.964;2022-10-31T15:19:24;36.65;;;17.50;;
73397;SDS011;63606;52.328;20.964;2022-10-31T15:21:52;38.63;;;18.52;;
73397;SDS011;63606;52.328;20.964;2022-10-31T15:24:20;35.67;;;17.13;;
73397;SDS011;63606;52.328;20.964;2022-10-31T15:26:48;32.28;;;15.23;;
73397;SDS011;63606;52.328;20.964;2022-10-31T15:29:17;38.55;;;17.67;;
73397;SDS011;63606;52.328;20.964;2022-10-31T15:36:53;35.55;;;17.27;;
73397;SDS011;63606;52.328;20.964;2022-10-31T15:39:19;38.90;;;18.50;;
73397;SDS011;63606;52.328;20.964;2022-10-31T15:41:52;37.83;;;17.70;;
73397;SDS011;63606;52.328;20.964;2022-10-31T15:44:26;36.50;;;17.42;;
73397;SDS011;63606;52.328;20.964;2022-10-31T15:47:00;39.22;;;18.90;;
73397;SDS011;63606;52.328;20.964;2022-10-31T15:52:03;42.35;;;19.90;;
73397;SDS011;63606;52.328;20.964;2022-10-31T15:54:33;41.83;;;18.73;;
73397;SDS011;63606;52.328;20.964;2022-10-31T15:56:59;41.00;;;20.15;;
73397;SDS011;63606;52.328;20.964;2022-10-31T15:59:25;40.25;;;18.13;;
73397;SDS011;63606;52.328;20.964;2022-10-31T16:01:58;40.25;;;18.95;;
73397;SDS011;63606;52.328;20.964;2022-10-31T16:04:25;44.20;;;19.95;;
73397;SDS011;63606;52.328;20.964;2022-10-31T16:07:01;41.72;;;18.05;;
73397;SDS011;63606;52.328;20.964;2022-10-31T16:09:48;40.80;;;18.80;;
73397;SDS011;63606;52.328;20.964;2022-10-31T16:12:20;36.17;;;17.15;;
73397;SDS011;63606;52.328;20.964;2022-10-31T16:14:47;34.78;;;17.27;;
73397;SDS011;63606;52.328;20.964;2022-10-31T16:17:13;47.13;;;20.42;;
73397;SDS011;63606;52.328;20.964;2022-10-31T16:22:27;39.10;;;17.35;;
73397;SDS011;63606;52.328;20.964;2022-10-31T16:27:31;39.75;;;18.02;;
73397;SDS011;63606;52.328;20.964;2022-10-31T16:29:59;38.97;;;18.73;;
73397;SDS011;63606;52.328;20.964;2022-10-31T16:34:57;38.28;;;18.75;;
73397;SDS011;63606;52.328;20.964;2022-10-31T16:37:27;36.58;;;18.15;;
73397;SDS011;63606;52.328;20.964;2022-10-31T16:39:52;42.92;;;17.27;;
73397;SDS011;63606;52.328;20.964;2022-10-31T16:42:18;32.47;;;16.85;;
73397;SDS011;63606;52.328;20.964;2022-10-31T16:44:43;44.35;;;19.42;;
73397;SDS011;63606;52.328;20.964;2022-10-31T16:47:12;42.00;;;18.92;;
73397;SDS011;63606;52.328;20.964;2022-10-31T16:49:40;44.17;;;18.80;;
73397;SDS011;63606;52.328;20.964;2022-10-31T16:52:06;50.83;;;21.20;;
73397;SDS011;63606;52.328;20.964;2022-10-31T16:54:31;46.95;;;20.52;;
73397;SDS011;63606;52.328;20.964;2022-10-31T16:56:57;46.78;;;19.50;;
73397;SDS011;63606;52.328;20.964;2022-10-31T16:59:24;44.90;;;19.58;;
73397;SDS011;63606;52.328;20.964;2022-10-31T17:01:51;48.30;;;20.10;;
73397;SDS011;63606;52.328;20.964;2022-10-31T17:04:17;43.63;;;19.65;;
73397;SDS011;63606;52.328;20.964;2022-10-31T17:06:43;47.67;;;21.25;;
73397;SDS011;63606;52.328;20.964;2022-10-31T17:09:08;48.45;;;21.10;;
73397;SDS011;63606;52.328;20.964;2022-10-31T17:11:34;53.85;;;21.30;;
73397;SDS011;63606;52.328;20.964;2022-10-31T17:14:00;51.53;;;20.63;;